createdAt,value
2022-09-06T00:01:09.196Z,100453.87
2022-09-06T00:03:36.871Z,100448.94
2022-09-06T00:06:13.002Z,100439.41
2022-09-06T00:08:41.013Z,100441.28
2022-09-06T00:11:08.410Z,100441.25
2022-09-06T00:13:36.473Z,100440.53
2022-09-06T00:16:13.341Z,100434.97
2022-09-06T00:18:41.160Z,100436.03
2022-09-06T00:21:20.350Z,100432.59
2022-09-06T00:23:47.941Z,100432.72
2022-09-06T00:26:15.743Z,100430.16
2022-09-06T00:28:43.308Z,100429.81
2022-09-06T00:31:22.539Z,100438.81
2022-09-06T00:33:50.334Z,100449.53
2022-09-06T00:36:18.157Z,100453.84
2022-09-06T00:38:45.599Z,100443.81
2022-09-06T00:41:15.283Z,100447.97
2022-09-06T00:43:42.914Z,100440.66
2022-09-06T00:46:17.224Z,100450.63
2022-09-06T00:48:44.882Z,100448.16
2022-09-06T00:51:13.391Z,100447.41
2022-09-06T00:53:41.635Z,100446.41
2022-09-06T00:56:09.547Z,100444.13
2022-09-06T00:58:37.249Z,100440.94
2022-09-06T01:01:05.335Z,100438.13
2022-09-06T01:03:33.074Z,100439.47
2022-09-06T01:06:15.683Z,100447.91
2022-09-06T01:09:27.910Z,100452.50
2022-09-06T01:12:16.925Z,100444.41
2022-09-06T01:15:11.235Z,100437.97
2022-09-06T01:17:38.520Z,100442.75
2022-09-06T01:20:21.174Z,100441.28
2022-09-06T01:23:04.785Z,100451.59
2022-09-06T01:26:12.854Z,100441.47
2022-09-06T01:28:43.918Z,100442.56
2022-09-06T01:31:25.767Z,100431.00
2022-09-06T01:34:05.646Z,100437.84
2022-09-06T01:36:45.812Z,100435.66
2022-09-06T01:39:28.024Z,100434.41
2022-09-06T01:41:56.751Z,100434.50
2022-09-06T01:44:25.579Z,100433.78
2022-09-06T01:47:00.070Z,100433.13
2022-09-06T01:49:27.608Z,100432.50
2022-09-06T01:52:18.291Z,100432.03
2022-09-06T01:54:56.959Z,100436.81
2022-09-06T01:57:49.175Z,100435.66
2022-09-06T02:00:22.579Z,100430.09
2022-09-06T02:03:21.485Z,100427.72
2022-09-06T02:05:51.765Z,100432.66
2022-09-06T02:08:24.029Z,100431.19
2022-09-06T02:11:01.036Z,100433.59
2022-09-06T02:13:40.500Z,100434.38
2022-09-06T02:16:08.767Z,100428.34
2022-09-06T02:18:48.254Z,100428.72
2022-09-06T02:21:17.074Z,100423.81
2022-09-06T02:23:45.048Z,100421.28
2022-09-06T02:26:24.682Z,100425.06
2022-09-06T02:28:52.392Z,100422.78
2022-09-06T02:31:22.157Z,100419.84
2022-09-06T02:33:50.692Z,100420.06
2022-09-06T02:36:18.809Z,100418.56
2022-09-06T02:38:46.424Z,100413.72
2022-09-06T02:41:24.209Z,100419.94
2022-09-06T02:43:51.899Z,100417.28
2022-09-06T02:46:19.549Z,100421.22
2022-09-06T02:48:47.011Z,100424.59
2022-09-06T02:51:14.712Z,100421.38
2022-09-06T02:53:42.311Z,100418.09
2022-09-06T02:56:10.008Z,100415.94
2022-09-06T02:58:37.821Z,100414.50
2022-09-06T03:01:05.880Z,100408.72
2022-09-06T03:03:33.779Z,100407.94
2022-09-06T03:06:01.593Z,100406.41
2022-09-06T03:08:33.505Z,100401.91
2022-09-06T03:11:02.684Z,100404.56
2022-09-06T03:13:30.311Z,100412.09
2022-09-06T03:15:59.591Z,100410.37
2022-09-06T03:18:29.174Z,100406.03
2022-09-06T03:20:57.158Z,100412.06
2022-09-06T03:23:26.395Z,100405.47
2022-09-06T03:25:54.631Z,100405.22
2022-09-06T03:28:22.658Z,100410.13
2022-09-06T03:30:51.747Z,100405.63
2022-09-06T03:33:20.410Z,100413.31
2022-09-06T03:35:55.561Z,100407.22
2022-09-06T03:38:23.821Z,100409.81
2022-09-06T03:40:52.846Z,100405.16
2022-09-06T03:43:21.654Z,100410.72
2022-09-06T03:45:52.238Z,100410.97
2022-09-06T03:48:20.988Z,100404.97
2022-09-06T03:50:50.489Z,100415.28
2022-09-06T03:53:18.574Z,100416.03
2022-09-06T03:55:50.592Z,100415.56
2022-09-06T03:58:19.977Z,100418.97
2022-09-06T04:00:47.895Z,100417.66
2022-09-06T04:03:15.597Z,100415.69
2022-09-06T04:05:46.579Z,100420.47
2022-09-06T04:08:14.054Z,100408.66
2022-09-06T04:10:41.811Z,100411.66
2022-09-06T04:13:09.273Z,100406.19
2022-09-06T04:15:37.265Z,100414.50
2022-09-06T04:18:08.620Z,100413.31
2022-09-06T04:20:36.619Z,100413.97
2022-09-06T04:23:04.156Z,100409.44
2022-09-06T04:25:31.863Z,100417.19
2022-09-06T04:27:59.340Z,100421.25
2022-09-06T04:30:26.736Z,100418.88
2022-09-06T04:32:54.434Z,100428.09
2022-09-06T04:35:21.810Z,100425.47
2022-09-06T04:37:49.214Z,100420.41
2022-09-06T04:40:17.083Z,100423.31
2022-09-06T04:42:44.463Z,100419.59
2022-09-06T04:45:12.170Z,100416.97
2022-09-06T04:47:39.851Z,100418.00
2022-09-06T04:50:07.746Z,100417.56
2022-09-06T04:52:35.162Z,100412.91
2022-09-06T04:55:03.152Z,100422.38
2022-09-06T04:57:30.986Z,100423.13
2022-09-06T04:59:58.368Z,100410.81
2022-09-06T05:02:26.052Z,100411.97
2022-09-06T05:04:54.884Z,100407.09
2022-09-06T05:07:22.281Z,100409.72
2022-09-06T05:09:49.970Z,100409.09
2022-09-06T05:12:17.576Z,100416.75
2022-09-06T05:14:44.994Z,100416.28
2022-09-06T05:17:15.225Z,100415.03
2022-09-06T05:19:43.180Z,100415.72
2022-09-06T05:22:11.978Z,100416.63
2022-09-06T05:24:39.825Z,100421.91
2022-09-06T05:27:07.673Z,100427.88
2022-09-06T05:29:35.233Z,100422.97
2022-09-06T05:32:03.165Z,100413.78
2022-09-06T05:34:30.683Z,100413.37
2022-09-06T05:36:58.075Z,100413.06
2022-09-06T05:39:25.725Z,100414.19
2022-09-06T05:41:53.173Z,100415.81
2022-09-06T05:44:20.595Z,100417.56
2022-09-06T05:46:48.265Z,100425.84
2022-09-06T05:49:15.768Z,100413.22
2022-09-06T05:51:43.204Z,100419.34
2022-09-06T05:54:11.745Z,100412.47
2022-09-06T05:56:39.403Z,100409.34
2022-09-06T05:59:06.771Z,100403.16
2022-09-06T06:01:34.267Z,100414.28
2022-09-06T06:04:04.648Z,100415.53
2022-09-06T06:06:33.464Z,100411.75
2022-09-06T06:09:00.982Z,100411.38
2022-09-06T06:11:28.713Z,100409.63
2022-09-06T06:13:56.132Z,100408.00
2022-09-06T06:16:23.649Z,100415.00
2022-09-06T06:18:52.767Z,100400.19
2022-09-06T06:21:28.586Z,100408.34
2022-09-06T06:24:06.402Z,100404.47
2022-09-06T06:26:35.770Z,100409.97
2022-09-06T06:29:05.707Z,100407.22
2022-09-06T06:31:33.806Z,100412.56
2022-09-06T06:34:03.760Z,100416.16
2022-09-06T06:36:33.930Z,100405.41
2022-09-06T06:39:02.441Z,100413.13
2022-09-06T06:41:31.879Z,100417.91
2022-09-06T06:44:01.362Z,100418.22
2022-09-06T06:46:31.357Z,100408.41
2022-09-06T06:48:58.782Z,100411.00
2022-09-06T06:51:28.596Z,100415.56
2022-09-06T06:54:00.000Z,100429.12
2022-09-06T06:56:28.669Z,100428.31
2022-09-06T06:58:58.259Z,100427.66
2022-09-06T07:01:27.430Z,100426.78
2022-09-06T07:03:55.567Z,100435.00
2022-09-06T07:09:11.719Z,100437.66
2022-09-06T07:11:39.113Z,100435.00
2022-09-06T07:14:06.493Z,100436.94
2022-09-06T07:16:34.191Z,100429.12
2022-09-06T07:19:01.669Z,100433.66
2022-09-06T07:24:06.548Z,100439.78
2022-09-06T07:26:36.622Z,100442.53
2022-09-06T07:29:05.413Z,100443.41
2022-09-06T07:34:20.995Z,100441.06
2022-09-06T07:36:48.680Z,100441.28
2022-09-06T07:39:16.109Z,100441.28
2022-09-06T07:41:43.743Z,100444.06
2022-09-06T07:44:11.195Z,100436.00
2022-09-06T07:46:38.948Z,100434.31
2022-09-06T07:49:06.840Z,100436.09
2022-09-06T07:51:34.285Z,100431.72
2022-09-06T07:54:26.289Z,100441.38
2022-09-06T07:56:49.801Z,100439.69
2022-09-06T07:59:17.252Z,100434.56
2022-09-06T08:01:44.737Z,100438.94
2022-09-06T08:04:14.063Z,100436.25
2022-09-06T08:09:31.303Z,100432.63
2022-09-06T08:11:58.901Z,100439.41
2022-09-06T08:14:26.319Z,100437.25
2022-09-06T08:16:53.977Z,100432.88
2022-09-06T08:19:21.375Z,100433.69
2022-09-06T08:21:49.709Z,100423.63
2022-09-06T08:24:17.361Z,100424.19
2022-09-06T08:26:44.811Z,100420.84
2022-09-06T08:29:13.120Z,100416.22
2022-09-06T08:31:43.293Z,100417.06
2022-09-06T08:34:12.773Z,100412.16
2022-09-06T08:36:40.745Z,100416.16
2022-09-06T08:39:09.982Z,100407.22
2022-09-06T08:41:56.948Z,100405.38
2022-09-06T08:44:56.004Z,100413.59
2022-09-06T08:47:24.681Z,100409.22
2022-09-06T08:50:04.258Z,100409.38
2022-09-06T08:52:49.765Z,100405.56
2022-09-06T08:55:30.820Z,100401.19
2022-09-06T08:58:35.829Z,100413.69
2022-09-06T09:01:05.650Z,100402.53
2022-09-06T09:03:38.159Z,100401.16
2022-09-06T09:06:07.459Z,100396.63
2022-09-06T09:09:08.013Z,100395.78
2022-09-06T09:11:36.368Z,100391.56
2022-09-06T09:14:17.430Z,100396.53
2022-09-06T09:16:45.179Z,100385.94
2022-09-06T09:19:13.567Z,100387.16
2022-09-06T09:21:41.013Z,100382.41
2022-09-06T09:24:10.446Z,100376.97
2022-09-06T09:26:51.220Z,100371.38
2022-09-06T09:29:22.755Z,100373.16
2022-09-06T09:31:54.669Z,100369.00
2022-09-06T09:34:39.879Z,100361.16
2022-09-06T09:40:24.285Z,100350.09
2022-09-06T09:42:52.870Z,100352.34
2022-09-06T09:45:23.275Z,100348.19
2022-09-06T09:47:50.663Z,100350.53
2022-09-06T09:50:30.327Z,100348.94
2022-09-06T09:53:08.172Z,100341.63
2022-09-06T09:55:35.887Z,100340.62
2022-09-06T09:58:04.046Z,100341.94
2022-09-06T10:00:34.114Z,100327.88
2022-09-06T10:03:12.490Z,100328.56
2022-09-06T10:05:40.409Z,100332.88
2022-09-06T10:08:12.629Z,100323.12
2022-09-06T10:10:43.048Z,100315.88
2022-09-06T10:13:19.366Z,100312.31
2022-09-06T10:15:47.503Z,100315.81
2022-09-06T10:18:34.807Z,100307.41
2022-09-06T10:21:14.700Z,100303.06
2022-09-06T10:26:38.447Z,100288.19
2022-09-06T10:29:09.654Z,100296.44
2022-09-06T10:31:39.835Z,100304.28
2022-09-06T10:34:16.818Z,100298.56
2022-09-06T10:37:14.340Z,100292.94
2022-09-06T10:39:48.408Z,100291.03
2022-09-06T10:42:34.534Z,100277.44
2022-09-06T10:45:20.689Z,100270.81
2022-09-06T10:47:57.272Z,100266.56
2022-09-06T10:50:36.412Z,100274.28
2022-09-06T10:53:09.364Z,100277.44
2022-09-06T10:55:40.341Z,100278.38
2022-09-06T10:58:19.261Z,100276.06
2022-09-06T11:00:49.575Z,100278.16
2022-09-06T11:06:11.511Z,100282.94
2022-09-06T11:08:58.291Z,100284.72
2022-09-06T11:11:49.405Z,100282.50
2022-09-06T11:14:18.036Z,100275.00
2022-09-06T11:16:49.665Z,100264.25
2022-09-06T11:19:24.029Z,100262.75
2022-09-06T11:22:10.318Z,100271.63
2022-09-06T11:25:12.539Z,100270.09
2022-09-06T11:27:42.595Z,100263.72
2022-09-06T11:30:14.905Z,100262.12
2022-09-06T11:32:49.744Z,100252.00
2022-09-06T11:35:37.385Z,100257.84
2022-09-06T11:38:14.147Z,100248.41
2022-09-06T11:40:44.590Z,100243.81
2022-09-06T11:43:14.243Z,100240.72
2022-09-06T11:45:53.021Z,100238.91
2022-09-06T11:48:23.585Z,100237.94
2022-09-06T11:50:54.026Z,100234.88
2022-09-06T11:53:23.079Z,100233.06
2022-09-06T11:56:05.166Z,100229.81
2022-09-06T11:58:53.982Z,100233.28
2022-09-06T12:01:21.269Z,100224.13
2022-09-06T12:04:05.864Z,100218.22
2022-09-06T12:06:43.782Z,100209.56
2022-09-06T12:09:46.893Z,100209.22
2022-09-06T12:12:48.143Z,100216.53
2022-09-06T12:15:26.062Z,100208.06
2022-09-06T12:17:53.885Z,100209.78
2022-09-06T12:20:51.306Z,100199.81
2022-09-06T12:23:37.095Z,100207.69
2022-09-06T12:26:09.187Z,100195.72
2022-09-06T12:28:52.740Z,100189.84
2022-09-06T12:31:26.412Z,100188.25
2022-09-06T12:33:54.932Z,100176.97
2022-09-06T12:36:29.825Z,100168.00
2022-09-06T12:38:58.663Z,100161.81
2022-09-06T12:41:28.548Z,100157.31
2022-09-06T12:43:56.320Z,100161.84
2022-09-06T12:46:25.650Z,100162.56
2022-09-06T12:49:06.767Z,100162.09
2022-09-06T12:51:35.139Z,100161.00
2022-09-06T12:54:05.993Z,100158.44
2022-09-06T12:56:37.321Z,100152.94
2022-09-06T12:59:32.427Z,100144.47
2022-09-06T13:02:02.781Z,100142.03
2022-09-06T13:04:39.901Z,100139.50
2022-09-06T13:07:09.945Z,100130.69
2022-09-06T13:09:38.206Z,100137.38
2022-09-06T13:12:10.734Z,100128.56
2022-09-06T13:14:38.503Z,100122.75
2022-09-06T13:17:05.950Z,100113.38
2022-09-06T13:19:38.437Z,100115.03
2022-09-06T13:22:11.182Z,100118.75
2022-09-06T13:24:47.687Z,100113.16
2022-09-06T13:27:30.739Z,100107.72
2022-09-06T13:30:09.187Z,100106.16
2022-09-06T13:32:45.871Z,100105.13
2022-09-06T13:35:23.923Z,100103.50
2022-09-06T13:37:51.772Z,100102.88
2022-09-06T13:41:07.107Z,100092.44
2022-09-06T13:43:33.443Z,100083.41
2022-09-06T13:46:06.367Z,100081.13
2022-09-06T13:48:34.655Z,100085.97
2022-09-06T13:51:06.903Z,100069.91
2022-09-06T13:53:34.893Z,100075.59
2022-09-06T13:56:03.121Z,100076.03
2022-09-06T13:58:30.816Z,100074.50
2022-09-06T14:00:58.635Z,100076.41
2022-09-06T14:03:31.665Z,100074.47
2022-09-06T14:06:00.307Z,100077.25
2022-09-06T14:08:38.854Z,100065.25
2022-09-06T14:11:16.256Z,100070.53
2022-09-06T14:13:44.269Z,100066.38
2022-09-06T14:16:12.634Z,100064.72
2022-09-06T14:18:40.523Z,100062.34
2022-09-06T14:21:08.214Z,100063.03
2022-09-06T14:23:35.605Z,100057.66
2022-09-06T14:26:04.499Z,100047.16
2022-09-06T14:28:33.843Z,100059.25
2022-09-06T14:31:15.803Z,100065.09
2022-09-06T14:33:43.621Z,100067.06
2022-09-06T14:36:13.223Z,100058.50
2022-09-06T14:38:41.850Z,100058.22
2022-09-06T14:41:09.858Z,100055.13
2022-09-06T14:43:37.820Z,100050.66
2022-09-06T14:46:07.522Z,100047.00
2022-09-06T14:48:38.128Z,100057.63
2022-09-06T14:51:19.211Z,100050.44
2022-09-06T14:53:47.227Z,100058.53
2022-09-06T14:56:15.266Z,100051.91
2022-09-06T14:58:43.467Z,100056.09
2022-09-06T15:01:22.317Z,100064.09
2022-09-06T15:03:52.065Z,100073.12
2022-09-06T15:06:21.312Z,100086.94
2022-09-06T15:08:49.740Z,100092.13
2022-09-06T15:11:36.659Z,100101.22
2022-09-06T15:14:08.029Z,100124.00
2022-09-06T15:16:36.221Z,100132.72
2022-09-06T15:19:04.144Z,100151.41
2022-09-06T15:21:32.435Z,100162.94
2022-09-06T15:24:01.879Z,100176.91
2022-09-06T15:26:30.062Z,100163.88
2022-09-06T15:28:57.431Z,100147.00
2022-09-06T15:31:25.246Z,100130.47
2022-09-06T15:33:53.037Z,100109.31
2022-09-06T15:36:21.890Z,100088.81
2022-09-06T15:38:50.199Z,100081.41
2022-09-06T15:41:20.154Z,100083.22
2022-09-06T15:43:49.168Z,100087.59
2022-09-06T15:46:21.292Z,100079.56
2022-09-06T15:48:50.825Z,100079.62
2022-09-06T15:51:19.988Z,100072.62
2022-09-06T15:53:47.810Z,100086.78
2022-09-06T15:56:16.703Z,100081.44
2022-09-06T15:58:47.749Z,100078.31
2022-09-06T16:01:20.619Z,100081.50
2022-09-06T16:03:50.529Z,100090.69
2022-09-06T16:06:26.253Z,100085.78
2022-09-06T16:09:09.378Z,100090.03
2022-09-06T16:11:37.134Z,100094.59
2022-09-06T16:14:06.831Z,100100.56
2022-09-06T16:16:35.269Z,100102.56
2022-09-06T16:19:03.376Z,100107.88
2022-09-06T16:21:32.442Z,100109.16
2022-09-06T16:24:01.860Z,100111.50
2022-09-06T16:26:34.858Z,100116.38
2022-09-06T16:29:04.218Z,100120.78
2022-09-06T16:31:36.366Z,100115.47
2022-09-06T16:34:07.846Z,100104.91
2022-09-06T16:36:35.412Z,100097.84
2022-09-06T16:39:04.090Z,100099.56
2022-09-06T16:41:40.574Z,100101.28
2022-09-06T16:44:09.095Z,100095.06
2022-09-06T16:46:36.967Z,100092.44
2022-09-06T16:49:04.654Z,100095.03
2022-09-06T16:51:32.171Z,100100.34
2022-09-06T16:54:00.175Z,100104.56
2022-09-06T16:56:33.326Z,100100.47
2022-09-06T16:59:04.558Z,100097.00
2022-09-06T17:01:33.149Z,100106.66
2022-09-06T17:04:04.375Z,100107.56
2022-09-06T17:06:33.205Z,100111.97
2022-09-06T17:09:01.092Z,100123.41
2022-09-06T17:11:29.226Z,100133.09
2022-09-06T17:13:57.789Z,100137.50
2022-09-06T17:16:44.640Z,100146.22
2022-09-06T17:19:12.871Z,100149.84
2022-09-06T17:21:40.859Z,100146.19
2022-09-06T17:24:08.939Z,100138.13
2022-09-06T17:26:38.024Z,100148.94
2022-09-06T17:29:06.552Z,100139.25
2022-09-06T17:31:35.966Z,100138.38
2022-09-06T17:34:04.081Z,100136.63
2022-09-06T17:36:33.407Z,100133.81
2022-09-06T17:39:03.743Z,100137.38
2022-09-06T17:41:42.883Z,100138.25
2022-09-06T17:44:12.985Z,100136.59
2022-09-06T17:46:57.097Z,100131.31
2022-09-06T17:49:30.301Z,100138.38
2022-09-06T17:51:58.507Z,100135.72
2022-09-06T17:54:26.185Z,100131.31
2022-09-06T17:56:54.108Z,100131.34
2022-09-06T17:59:21.811Z,100129.47
2022-09-06T18:01:49.499Z,100126.00
2022-09-06T18:04:17.881Z,100141.87
2022-09-06T18:06:47.027Z,100135.72
2022-09-06T18:09:17.533Z,100132.16
2022-09-06T18:11:48.533Z,100136.59
2022-09-06T18:14:18.489Z,100132.22
2022-09-06T18:16:49.299Z,100127.78
2022-09-06T18:19:18.176Z,100126.06
2022-09-06T18:21:47.082Z,100130.44
2022-09-06T18:24:15.549Z,100130.44
2022-09-06T18:26:43.453Z,100136.63
2022-09-06T18:29:13.484Z,100141.91
2022-09-06T18:31:41.911Z,100150.69
2022-09-06T18:34:10.441Z,100154.12
2022-09-06T18:36:38.955Z,100163.03
2022-09-06T18:39:06.686Z,100159.37
2022-09-06T18:41:53.390Z,100166.47
2022-09-06T18:44:21.908Z,100158.63
2022-09-06T18:46:50.303Z,100150.69
2022-09-06T18:49:18.753Z,100147.19
2022-09-06T18:51:47.098Z,100145.47
2022-09-06T18:54:14.999Z,100147.19
2022-09-06T18:56:45.117Z,100146.34
2022-09-06T18:59:14.181Z,100142.78
2022-09-06T19:01:43.390Z,100138.38
2022-09-06T19:04:11.982Z,100138.38
2022-09-06T19:06:41.551Z,100133.09
2022-09-06T19:09:13.283Z,100135.72
2022-09-06T19:11:45.964Z,100137.50
2022-09-06T19:14:14.059Z,100145.41
2022-09-06T19:16:42.559Z,100146.31
2022-09-06T19:19:12.037Z,100156.78
2022-09-06T19:21:42.323Z,100146.19
2022-09-06T19:24:12.439Z,100155.06
2022-09-06T19:26:42.058Z,100150.66
2022-09-06T19:29:15.502Z,100155.81
2022-09-06T19:31:44.429Z,100148.00
2022-09-06T19:34:13.964Z,100147.97
2022-09-06T19:36:42.043Z,100148.87
2022-09-06T19:39:12.541Z,100137.47
2022-09-06T19:41:43.017Z,100141.87
2022-09-06T19:44:11.782Z,100144.34
2022-09-06T19:46:45.760Z,100134.69
2022-09-06T19:49:19.509Z,100129.47
2022-09-06T19:51:49.203Z,100130.19
2022-09-06T19:54:17.942Z,100123.13
2022-09-06T19:56:46.395Z,100122.22
2022-09-06T19:59:14.981Z,100127.31
2022-09-06T20:01:44.747Z,100122.19
2022-09-06T20:04:14.362Z,100118.72
2022-09-06T20:06:42.318Z,100122.34
2022-09-06T20:09:10.754Z,100117.97
2022-09-06T20:11:41.622Z,100112.72
2022-09-06T20:14:12.592Z,100116.25
2022-09-06T20:16:42.307Z,100117.06
2022-09-06T20:19:12.348Z,100107.47
2022-09-06T20:21:40.598Z,100113.69
2022-09-06T20:24:08.915Z,100104.81
2022-09-06T20:26:36.646Z,100117.12
2022-09-06T20:29:05.360Z,100115.41
2022-09-06T20:31:33.923Z,100119.75
2022-09-06T20:34:02.806Z,100111.87
2022-09-06T20:36:31.156Z,100117.88
2022-09-06T20:38:59.044Z,100119.53
2022-09-06T20:41:27.283Z,100121.31
2022-09-06T20:43:56.697Z,100122.19
2022-09-06T20:46:30.456Z,100118.66
2022-09-06T20:49:00.137Z,100120.34
2022-09-06T20:51:28.057Z,100122.19
2022-09-06T20:54:00.855Z,100128.09
2022-09-06T20:56:34.537Z,100135.31
2022-09-06T20:59:05.862Z,100125.69
2022-09-06T21:01:37.050Z,100128.19
2022-09-06T21:04:06.692Z,100135.13
2022-09-06T21:06:36.689Z,100120.22
2022-09-06T21:09:08.897Z,100127.09
2022-09-06T21:11:36.714Z,100118.87
2022-09-06T21:14:04.821Z,100125.37
2022-09-06T21:16:32.632Z,100124.63
2022-09-06T21:19:05.464Z,100116.78
2022-09-06T21:21:34.552Z,100116.59
2022-09-06T21:24:03.942Z,100118.22
2022-09-06T21:26:31.640Z,100119.63
2022-09-06T21:28:59.460Z,100106.97
2022-09-06T21:31:32.336Z,100115.75
2022-09-06T21:34:03.295Z,100119.06
2022-09-06T21:36:33.980Z,100116.62
2022-09-06T21:39:04.821Z,100109.75
2022-09-06T21:41:35.041Z,100115.84
2022-09-06T21:44:03.442Z,100111.41
2022-09-06T21:46:33.940Z,100109.84
2022-09-06T21:49:12.943Z,100101.94
2022-09-06T21:51:40.899Z,100106.22
2022-09-06T21:54:09.140Z,100090.50
2022-09-06T21:56:38.217Z,100102.44
2022-09-06T21:59:06.304Z,100102.03
2022-09-06T22:01:35.669Z,100100.72
2022-09-06T22:04:04.327Z,100098.25
2022-09-06T22:06:33.418Z,100101.16
2022-09-06T22:09:05.258Z,100098.28
2022-09-06T22:11:34.081Z,100094.84
2022-09-06T22:14:03.997Z,100104.34
2022-09-06T22:16:33.853Z,100098.34
2022-09-06T22:19:01.879Z,100092.25
2022-09-06T22:21:29.333Z,100095.94
2022-09-06T22:23:58.660Z,100102.84
2022-09-06T22:26:28.403Z,100104.47
2022-09-06T22:29:00.287Z,100113.97
2022-09-06T22:31:29.797Z,100102.56
2022-09-06T22:33:57.519Z,100099.06
2022-09-06T22:36:26.141Z,100106.25
2022-09-06T22:38:57.578Z,100107.69
2022-09-06T22:41:27.109Z,100096.94
2022-09-06T22:43:55.021Z,100099.47
2022-09-06T22:46:23.085Z,100104.94
2022-09-06T22:48:50.627Z,100096.22
2022-09-06T22:51:18.467Z,100092.44
2022-09-06T22:53:45.875Z,100089.19
2022-09-06T22:56:13.306Z,100094.47
2022-09-06T22:58:40.990Z,100097.81
2022-09-06T23:01:10.508Z,100088.88
2022-09-06T23:03:38.471Z,100085.00
2022-09-06T23:06:06.374Z,100086.69
2022-09-06T23:08:35.383Z,100080.75
2022-09-06T23:11:08.403Z,100090.69
2022-09-06T23:13:36.204Z,100093.56
2022-09-06T23:16:05.928Z,100088.00
2022-09-06T23:18:33.917Z,100089.91
2022-09-06T23:21:06.485Z,100084.72
2022-09-06T23:23:34.936Z,100084.56
2022-09-06T23:26:08.147Z,100089.91
2022-09-06T23:28:36.200Z,100090.06
2022-09-06T23:31:05.534Z,100095.88
2022-09-06T23:33:37.385Z,100089.38
2022-09-06T23:36:06.420Z,100091.47
2022-09-06T23:38:35.123Z,100089.69
2022-09-06T23:41:02.977Z,100080.25
2022-09-06T23:43:31.159Z,100075.44
2022-09-06T23:45:58.836Z,100074.97
2022-09-06T23:48:26.304Z,100073.06
2022-09-06T23:50:54.165Z,100077.59
2022-09-06T23:53:21.616Z,100084.47
2022-09-06T23:55:49.025Z,100076.28
2022-09-06T23:58:16.691Z,100071.09
